Aviation Digital Data Service (ADDS)

Output produced by METARs form (1157 UTC 26 March 2019)
found at http://www.aviationweather.gov/metar/data/
 
EGAA 261150Z 23010KT 9999 BKN041 09/05 Q1033
TAF EGAA 261103Z 2612/2712 25009KT 9999 BKN038
       
EGYE 261050Z 29012KT 9999 BKN045 ///// Q1034 BLU
EGPL 261150Z 23017KT 9999 FEW010 SCT029 BKN041 10/08 Q1028
TAF EGPL 261056Z 2612/2617 23015KT 9999 SCT020 BKN040 
     TEMPO 2612/2617 24018G28KT 8000 -RA BKN012
       
EGUB 261050Z 31007KT 9999 FEW030 BKN250 11/03 Q1035 BLU NOSIG
TAF EGUB 261030Z 2612/2621 33008KT 9999 BKN040
       
EGKB 261150Z 32008KT 280V350 9999 FEW027 10/03 Q1034
TAF EGKB 261058Z 2612/2621 32010KT 9999 FEW040 
     BECMG 2618/2621 VRB03KT
       
EGBB 261150Z 33012KT 290V350 9999 SCT037 11/01 Q1034
TAF EGBB 261102Z 2612/2712 32008KT 9999 SCT045 
     PROB30 
     TEMPO 2702/2709 9000
       
EGNH 261120Z 27009KT 9999 BKN037 09/06 Q1034
TAF EGNH 261103Z 2612/2621 28009KT 9999 SCT045
       
EGDM 261150Z 36007KT 9999 FEW033 SCT230 11/03 Q1034 BLU NOSIG
TAF EGDM 261044Z 2612/2619 33007KT 9999 SCT040
       
EGHH 261150Z 35008KT 280V020 CAVOK 12/03 Q1034
TAF EGHH 261106Z 2612/2621 35004KT CAVOK 
     PROB30 
     TEMPO 2612/2620 22010KT BKN035
       
EGGD 261150Z AUTO 27007KT 240V320 9999 NCD 11/02 Q1035
TAF EGGD 261059Z 2612/2712 32008KT 9999 FEW040
       
EGVN 261050Z 32008KT 9999 FEW028 BKN250 11/04 Q1035 NOSIG
TAF EGVN 261049Z 2612/2712 31006KT 9999 SCT035 
     PROB30 
     TEMPO 2622/2711 SCT020
       
EGCK 261150Z 27008KT 9999 FEW016 SCT027 10/07 Q1035
TAF EGCK 261103Z 2612/2621 26006KT 9999 SCT030
       
EGSC 261150Z 33009KT 9999 FEW028 BKN040 11/02 Q1033
TAF EGSC 261106Z 2612/2621 35008KT CAVOK 
     BECMG 2612/2615 BKN035
       
EGEC 261150Z 25015KT 9999 FEW020 BKN039 10/06 Q1032
TAF EGEC 261103Z 2612/2618 25012KT 9999 SCT040 
     TEMPO 2612/2618 25015G25KT 
     PROB30 
     TEMPO 2612/2616 9000 BKN012
       
EGFF 261150Z AUTO 23006KT 9999 NCD 11/05 Q1035
TAF EGFF 261102Z 2612/2712 26010KT 9999 FEW045 
     BECMG 2621/2624 VRB03KT 
     PROB30 2703/2708 6000
       
EGLC 261150Z AUTO 31007KT 270V010 9999 FEW036 11/02 Q1034
TAF EGLC 261058Z 2612/2621 33010KT 9999 FEW040 
     BECMG 2618/2621 VRB03KT
       
EGAC 261150Z AUTO 26010KT 230V300 9999 OVC043/// 11/04 Q1033
TAF EGAC 261056Z 2612/2621 26007KT 9999 BKN038
       
EGXC 261050Z 32007KT 9999 FEW020 BKN042 09/04 Q1033 BLU NOSIG
TAF EGXC 261045Z 2612/2706 30010KT 9999 FEW030 BKN045
       
EGWC 261050Z 28009KT 9999 SCT036 BKN250 11/02 Q1034 BLU
TAF EGWC 261032Z 2612/2618 28008KT 9999 SCT035
       
EGTC 261150Z 29007KT 240V320 9999 BKN031 11/04 Q1033
TAF EGTC 261106Z 2612/2619 30008KT CAVOK 
     BECMG 2612/2615 BKN035
       
EGYD 261050Z 31011KT 9999 FEW022 BKN040 10/04 Q1033 BLU NOSIG
TAF EGYD 261017Z 2612/2619 29012KT 9999 BKN035
       
EGDR 261128Z 23006KT 9999 FEW028 11/05 Q1036 BLU NOSIG
TAF EGDR 261039Z 2612/2621 VRB05KT 9999 FEW025 
     PROB40 2618/2621 9999 SCT024
       
EGPN 261150Z 26016KT 9999 SCT032 10/07 Q1029
TAF EGPN 261056Z 2612/2621 24009KT 9999 FEW020 SCT035 
     TEMPO 2612/2621 25015G25KT
       
EGPD 261150Z AUTO 26012KT 9999 NCD 12/03 Q1027 NOSIG
TAF EGPD 261057Z 2612/2712 24009KT 9999 SCT040 
     PROB30 
     TEMPO 2612/2618 25015G25KT
       
EGNX 261150Z 26010KT 9999 BKN034 10/03 Q1033
TAF EGNX 261102Z 2612/2712 28008KT 9999 SCT045 
     PROB30 
     TEMPO 2702/2709 9000
       
EGPH 261150Z 25013KT 9999 SCT020 BKN035 09/05 Q1030
TAF EGPH 261057Z 2612/2712 24009KT 9999 SCT020 BKN035 
     TEMPO 2612/2618 26015G25KT 
     PROB30 
     TEMPO 2612/2621 BKN014 
     TEMPO 2709/2712 25015G25KT
       
EGTE 261150Z 34005KT 290V020 9999 FEW030 12/03 Q1035
TAF EGTE 261106Z 2612/2621 VRB03KT CAVOK 
     PROB30 
     TEMPO 2612/2621 BKN030
       
EGVA 261056Z 30008KT 9999 SCT040 11/02 A3056 RMK AO2A SLP354 T01080021 RVRNO $
EGLF 261150Z AUTO 31008KT 260V360 9999 FEW033/// 11/03 Q1034
TAF EGLF 261058Z 2612/2621 31010KT 9999 FEW040 
     BECMG 2618/2621 VRB03KT
       
EGKK 261150Z 31010KT 9999 FEW031 11/03 Q1034
TAF EGKK 261058Z 2612/2718 33010KT 9999 FEW040 
     BECMG 2618/2621 VRB03KT 
     PROB30 
     TEMPO 2701/2708 8000 
     BECMG 2708/2711 34010KT
       
EGPF 261150Z AUTO 26016KT 9999 BKN030 10/06 Q1031
TAF EGPF 261057Z 2612/2712 24009KT 9999 SCT020 BKN035 
     PROB40 
     TEMPO 2612/2712 8000 -RA BKN012 
     PROB30 
     TEMPO 2612/2616 25015G25KT
       
EGBJ 261150Z 29006KT 250V320 9999 SCT040 12/03 Q1034
TAF EGBJ 261106Z 2612/2620 25003KT CAVOK 
     BECMG 2612/2615 BKN035
       
EGNR 261150Z 32013KT 240V340 9999 SCT028 SCT035 11/05 Q1034
TAF EGNR 261103Z 2612/2621 29009KT 9999 SCT045
       
EGLL 261150Z AUTO 36006KT 300V050 9999 FEW039 12/03 Q1034 NOSIG
TAF EGLL 261104Z 2612/2718 33008KT 9999 SCT040 
     PROB30 
     TEMPO 2703/2708 8000
       
EGNJ 261150Z 30008KT 270V330 9999 FEW024 SCT034 BKN045 10/05 Q1032
TAF EGNJ 261103Z 2612/2621 25008KT 9999 SCT045
       
EGPE 261150Z 22016KT 9999 FEW020 SCT037 12/06 Q1027
TAF EGPE 261056Z 2612/2621 22012KT 9999 FEW018 SCT035 
     TEMPO 2612/2621 23018G28KT
       
EGPI 261150Z 26013KT 9999 BKN040 10/07 Q1032
TAF EGPI 261103Z 2612/2619 25012KT 9999 SCT040 
     TEMPO 2612/2619 26015G25KT 
     PROB30 
     TEMPO 2612/2616 9000 BKN012
       
EGTK 261150Z 32007KT 260V360 9999 SCT038 12/03 Q1034
TAF EGTK 261106Z 2612/2621 30005KT CAVOK 
     BECMG 2612/2615 BKN035
       
EGQK 261050Z AUTO 25018KT 9999 OVC100/// 11/06 Q1026
EGPA 261150Z 25025KT 9999 VCSH FEW008 BKN016 BKN028 09/08 Q1023
TAF EGPA 261056Z 2612/2621 25014KT 9999 SCT018 BKN030 
     TEMPO 2612/2621 26018G28KT 7000 -RA BKN012 
     PROB40 
     TEMPO 2612/2621 4000 DZ BKN006
       
EGUL 261056Z 31008KT 9999 CLR 11/03 A3050 RMK AO2A SLP332 T01050033 $
TAF AMD EGUL 260938Z 2609/2710 31009KT 9999 SCT020 BKN030 QNH3043INS 
     BECMG 2622/2623 31005KT 9999 BKN030 620509 QNH3047INS 
     BECMG 2700/2701 29009KT 9999 BKN030 610509 QNH3048INS 
     BECMG 2708/2709 VRB05KT 9999 BKN030 610509 QNH3051INS TX11/2615Z
TNM02/2706Z
       
EGNM 261150Z 28019KT 9999 FEW024 SCT030 10/02 Q1031
TAF EGNM 261059Z 2612/2712 29012KT 9999 FEW018 SCT030 
     PROB30 
     TEMPO 2612/2618 30015G25KT 
     PROB30 2700/2709 BKN012
       
EGXE 261050Z 31011KT 9999 FEW034 BKN040 10/02 Q1032 BLU NOSIG
TAF EGXE 261017Z 2612/2619 28008KT 9999 FEW025 BKN040
       
EGQL 261050Z 27017KT 9999 BKN036 11/03 Q1029 BLU
TAF EGQL 261036Z 2612/2621 26014KT 9999 SCT035 
     PROB40 
     TEMPO 2612/2618 28015G25KT
       
EGXU 261050Z 32006KT 9999 FEW028 BKN040 11/04 Q1032 BLU NOSIG
TAF EGXU 261024Z 2612/2619 29012KT 9999 FEW025 BKN035
       
EGGP 261150Z 29012KT 260V330 9999 SCT036 11/06 Q1034
TAF EGGP 261101Z 2612/2712 30010KT 9999 SCT035 
     BECMG 2620/2623 24005KT 
     BECMG 2706/2709 30010KT
       
EGAE 261150Z 25015KT 9999 FEW025 OVC038 11/06 Q1033
TAF EGAE 261056Z 2612/2621 24011KT 9999 BKN038
       
EGQS 261150Z 25010KT 9999 FEW025 BKN045 11/05 Q1026 BLU NOSIG
TAF EGQS 261026Z 2612/2706 24017G27KT 9999 SCT028 BKN040 
     PROB30 
     TEMPO 2614/2703 SCT022 
     BECMG 2619/2622 25014KT
       
EGGW 261150Z AUTO 33009KT 9999 BKN032 BKN039 10/03 Q1033
TAF EGGW 261059Z 2612/2712 32009KT 9999 FEW040 
     PROB30 2704/2709 8000 BKN014
       
EGMD 261150Z 30007KT 210V360 9999 FEW033 11/04 Q1034
TAF EGMD 261058Z 2612/2621 33010KT 9999 FEW040 
     BECMG 2618/2621 VRB03KT
       
EGCC 261150Z AUTO 29012KT 240V310 9999 BKN029 OVC036 10/04 Q1033 NOSIG
TAF EGCC 261101Z 2612/2718 29010KT 9999 SCT035 
     BECMG 2620/2623 23005KT 
     BECMG 2709/2712 30010KT
       
EGYM 261050Z 34010KT 9999 FEW027 BKN047 10/03 Q1033 BLU NOSIG
TAF EGYM 261041Z 2612/2621 33008KT 9999 SCT040
       
EGUN 261101Z COR AUTO 31010KT 9999 BKN048 11/07 A3051 RMK AO2 SLPNO ALSTG ESTMD $ COR 1107
TAF EGUN 260415Z 2604/2710 26009KT 9999 SKC QNH3051INS 
     BECMG 2609/2610 33010G15KT 9999 BKN035 QNH3047INS 
     BECMG 2617/2618 30009KT 9999 BKN035 QNH3049INS 
     BECMG 2707/2708 28009KT 9999 BKN015 QNH3053INS TX11/2616Z TN00/2606Z
       
EGNT 261150Z 26014KT 9999 BKN032 10/03 Q1030
TAF EGNT 261101Z 2612/2712 27009KT 9999 SCT035
       
EGWU 261150Z 35008KT 9999 BKN038 11/02 Q1034 NOSIG
TAF EGWU 261025Z 2612/2706 32006KT 9999 SCT035
       
EGSH 261150Z 32009KT 270V010 9999 SCT036 10/03 Q1033 NOSIG
TAF EGSH 261106Z 2612/2621 30008KT CAVOK 
     BECMG 2612/2615 BKN035
       
EGEO 261150Z 26011KT 9999 FEW018 SCT028 09/06 Q1031
TAF EGEO 261056Z 2612/2617 23009KT 9999 SCT016 BKN035 
     TEMPO 2612/2615 24018G28KT 
     PROB40 
     TEMPO 2612/2617 8000 -RA BKN014
       
EGVO 261050Z 31008KT 9999 FEW030 SCT200 10/03 Q1034 BLU NOSIG
TAF EGVO 261031Z 2612/2624 32008KT 9999 SCT030
       
EGPK 261150Z 24013KT 9999 FEW015 BKN037 09/06 Q1032
TAF EGPK 261057Z 2612/2712 24009KT 9999 SCT020 BKN035 
     TEMPO 2612/2615 25015G25KT 
     PROB30 
     TEMPO 2612/2712 8000 -RA BKN014
       
EGXP 261050Z 30010KT 9999 BKN037 09/05 Q1033 BLU
TAF EGXP 261040Z 2612/2618 30010KT 9999 BKN035
       
EGPM 261150Z 25022KT 3000 DZ SCT004 BKN010 09/08 Q1018 TEMPO 6000
TAF EGPM 261056Z 2612/2621 25016KT 9999 SCT006 BKN012 
     TEMPO 2612/2615 26020G30KT 
     TEMPO 2612/2616 4000 DZ BKN006 
     PROB40 
     TEMPO 2612/2616 BKN003 
     BECMG 2615/2618 SCT016
       
EGOS 261150Z 28006KT 9999 BKN036 11/04 Q1034 BLU NOSIG
TAF EGOS 261032Z 2612/2621 29010KT 9999 SCT035
       
EGKA 261150Z 31009KT 290V350 9999 FEW035 12/05 Q1034
TAF EGKA 261058Z 2612/2619 32009KT 9999 FEW040
       
EGHI 261150Z 36005KT 290V060 9999 FEW041 11/02 Q1035
TAF EGHI 261106Z 2612/2621 35004KT CAVOK 
     PROB30 
     TEMPO 2612/2620 22010KT BKN035
       
EGMC 261150Z 28008KT 260V350 9999 FEW025 10/03 Q1033
TAF EGMC 261058Z 2612/2621 33010KT 9999 FEW040 
     BECMG 2618/2621 VRB03KT
       
EGDX 261050Z 24005KT 9999 FEW030 10/04 Q1036 BLU
TAF EGDX 261027Z 2612/2618 27005KT 9999 FEW030
       
EGSS 261150Z AUTO 36008KT 320V040 9999 BKN032 10/03 Q1034
TAF EGSS 261059Z 2612/2718 32009KT 9999 FEW042 
     PROB30 2704/2709 8000 BKN014
       
EGPO 261150Z 24017KT 5000 -RADZ SCT006 OVC013 10/09 Q1026
TAF EGPO 261056Z 2612/2621 22015KT 9999 SCT018 BKN035 
     TEMPO 2612/2621 23018G28KT 
     PROB40 
     TEMPO 2612/2621 6000 RADZ BKN008
       
EGPB 261150Z 26028KT 7000 -RADZ BKN006 08/07 Q1019 TEMPO 4000
TAF EGPB 261056Z 2612/2621 25017KT 9999 SCT006 BKN012 
     TEMPO 2612/2616 26020G30KT 4000 DZ BKN006 
     PROB30 
     TEMPO 2612/2621 2000 BR BKN002
       
EGNV 261150Z 28012KT 9999 SCT041 10/01 Q1031
TAF EGNV 261103Z 2612/2621 29009KT 9999 SCT045
       
EGPU 260950Z 25015KT 9999 BKN026 09/06 Q1030
TAF EGPU 261056Z 2612/2619 24013KT 9999 SCT016 BKN030 
     TEMPO 2612/2619 25018G28KT 
     PROB40 
     TEMPO 2612/2619 BKN012
       
EGXZ 261050Z AUTO 28006KT 9999 OVC038/// 09/03 Q1032
EGOV 261150Z 29011KT 9999 FEW024 10/04 Q1035 BLU NOSIG
TAF EGOV 261033Z 2612/2620 29010KT 9999 FEW013 BKN038 
     PROB30 
     TEMPO 2612/2616 SCT018 BKN038
       
EGXW 261050Z 29008KT 9999 FEW020 BKN038 10/04 Q1033 BLU NOSIG
TAF EGXW 261043Z 2612/2706 29010KT 9999 BKN035
       
EGNO 261150Z 30012KT 270V330 9999 FEW023 BKN039 10/05 Q1033
TAF EGNO 261103Z 2612/2619 29007KT 9999 SCT045
       
EGUW 261050Z 32011KT 9999 FEW022 SCT250 09/04 Q1033 BLU NOSIG
TAF EGUW 261032Z 2612/2621 32007KT 9999 SCT035
       
EGPC 261150Z 27020KT 9999 FEW019 10/06 Q1024
TAF EGPC 261056Z 2612/2621 24009KT 9999 FEW018 SCT030 
     TEMPO 2612/2621 25018G28KT 
     PROB40 
     TEMPO 2612/2621 8000 -RA BKN014
       
EGXT 261050Z 31012KT 9999 SCT037 BKN042 11/02 Q1033 BLU
TAF EGXT 261019Z 2612/2618 30008KT 9999 FEW025 BKN040
       
EGOW 261050Z 28010KT 9999 FEW012 BKN040 10/07 Q1034 BLU
TAF EGOW 261019Z 2612/2618 28008KT 9999 BKN040
       
EGDY 261050Z 06003KT 9999 FEW030 11/03 Q1036 BLU NOSIG
TAF EGDY 261102Z 2612/2621 32005KT 9999 FEW030